Time;durP1;ratioP1;P1;durP2;ratioP2;P2;SDS_P1;SDS_P2;PMS_P1;PMS_P2;Temp;Humidity;BMP_temperature;BMP_pressure;BME280_temperature;BME280_humidity;BME280_pressure;Samples;Min_cycle;Max_cycle;Signal;HPM_P1;HPM_P2
2020/12/07 00:01:25;;;;;;;61.63;30.43;;;4.10;1.00;;;;;;5011774;28;20828;-67
2020/12/07 00:03:51;;;;;;;53.00;28.67;;;4.10;1.00;;;;;;5011698;28;20463;-67
2020/12/07 00:06:17;;;;;;;62.03;28.75;;;4.10;1.00;;;;;;5011805;28;20483;-68
2020/12/07 00:08:44;;;;;;;54.40;28.45;;;4.20;1.00;;;;;;5011604;28;20413;-67
2020/12/07 00:11:11;;;;;;;54.05;28.70;;;4.20;1.00;;;;;;5011662;28;20483;-66
2020/12/07 00:13:37;;;;;;;52.60;27.90;;;4.20;1.00;;;;;;5012422;28;20474;-68
2020/12/07 00:16:03;;;;;;;55.03;29.63;;;4.10;1.00;;;;;;5012389;28;20416;-66
2020/12/07 00:18:29;;;;;;;48.50;26.90;;;4.10;1.00;;;;;;5011084;28;20474;-66
2020/12/07 00:20:55;;;;;;;48.10;28.75;;;4.10;1.00;;;;;;5011530;28;20491;-67
2020/12/07 00:23:21;;;;;;;49.42;28.13;;;4.10;1.00;;;;;;5011356;28;20413;-67
2020/12/07 00:25:47;;;;;;;47.93;26.93;;;4.10;1.00;;;;;;5011626;28;20766;-67
2020/12/07 00:28:14;;;;;;;44.55;25.90;;;4.10;1.00;;;;;;5011170;28;20412;-67
2020/12/07 00:30:40;;;;;;;46.83;27.77;;;4.10;1.00;;;;;;5011289;28;20416;-67
2020/12/07 00:33:06;;;;;;;48.63;26.15;;;4.10;1.00;;;;;;5011363;28;20417;-67
2020/12/07 00:35:32;;;;;;;42.97;26.58;;;4.10;1.00;;;;;;5011513;28;20443;-67
2020/12/07 00:37:59;;;;;;;36.80;22.05;;;4.10;1.00;;;;;;5011394;28;20467;-67
2020/12/07 00:40:25;;;;;;;41.13;24.33;;;4.10;9.30;;;;;;5011230;28;20421;-66
2020/12/07 00:42:51;;;;;;;42.83;24.58;;;4.10;33.70;;;;;;5011334;28;20416;-66
2020/12/07 00:45:18;;;;;;;37.60;22.83;;;4.10;13.70;;;;;;5013221;28;20408;-68
2020/12/07 00:47:44;;;;;;;39.58;23.00;;;4.20;6.10;;;;;;5017567;28;20893;-67
2020/12/07 00:50:10;;;;;;;37.13;23.38;;;4.20;1.00;;;;;;5017854;28;20474;-67
2020/12/07 00:52:36;;;;;;;35.60;22.33;;;4.20;1.00;;;;;;5017655;28;20413;-67
2020/12/07 00:55:02;;;;;;;36.90;22.90;;;4.20;1.00;;;;;;5017807;28;20420;-66
2020/12/07 00:57:28;;;;;;;36.25;21.92;;;4.20;1.00;;;;;;5017763;28;20428;-68
2020/12/07 00:59:54;;;;;;;35.30;21.50;;;4.10;1.00;;;;;;5017449;28;20413;-66
2020/12/07 01:02:21;;;;;;;37.87;20.80;;;4.20;34.00;;;;;;5017705;28;20467;-67
2020/12/07 01:04:47;;;;;;;34.97;21.60;;;4.30;78.40;;;;;;5017819;28;20442;-66
2020/12/07 01:07:14;;;;;;;33.27;20.57;;;4.30;79.50;;;;;;5017781;28;20804;-67
2020/12/07 01:09:40;;;;;;;40.37;21.00;;;4.20;1.00;;;;;;5017431;28;20542;-67
2020/12/07 01:12:06;;;;;;;31.02;19.83;;;4.30;32.50;;;;;;5017766;28;20408;-67
2020/12/07 01:14:32;;;;;;;31.98;20.85;;;4.30;48.20;;;;;;5018120;28;20407;-68
2020/12/07 01:16:59;;;;;;;30.13;18.23;;;4.30;1.00;;;;;;5017367;28;20432;-67
2020/12/07 01:19:26;;;;;;;27.92;18.92;;;4.30;52.70;;;;;;5017207;28;20893;-67
2020/12/07 01:21:52;;;;;;;29.75;19.42;;;4.30;1.00;;;;;;5017639;28;20412;-67
2020/12/07 01:24:18;;;;;;;31.23;19.30;;;4.30;1.00;;;;;;5017699;28;20408;-66
2020/12/07 01:26:44;;;;;;;29.75;18.80;;;4.20;1.00;;;;;;5017487;28;20836;-66
2020/12/07 01:29:11;;;;;;;32.63;19.40;;;4.30;54.10;;;;;;5017095;28;20417;-66
2020/12/07 01:31:37;;;;;;;28.92;19.45;;;4.30;51.70;;;;;;5017108;28;20416;-66
2020/12/07 01:34:03;;;;;;;31.88;19.08;;;4.20;32.90;;;;;;5017339;28;20494;-66
2020/12/07 01:36:30;;;;;;;34.30;19.85;;;4.20;95.00;;;;;;5017569;28;20412;-66
2020/12/07 01:38:57;;;;;;;30.47;19.13;;;4.20;99.90;;;;;;5017143;28;20872;-66
2020/12/07 01:41:23;;;;;;;29.02;17.05;;;4.20;99.90;;;;;;5017158;28;20409;-66
2020/12/07 01:43:49;;;;;;;28.30;17.90;;;4.20;99.90;;;;;;5017251;28;20447;-66
2020/12/07 01:46:19;;;;;;;24.33;16.75;;;4.30;99.90;;;;;;5016992;28;20424;-66
2020/12/07 01:48:45;;;;;;;28.73;18.38;;;4.20;99.90;;;;;;5017202;28;20405;-66
2020/12/07 01:51:12;;;;;;;27.45;18.13;;;4.30;99.90;;;;;;5017037;28;20447;-66
2020/12/07 01:53:39;;;;;;;28.38;17.40;;;4.20;99.90;;;;;;5017170;28;20412;-66
2020/12/07 01:56:07;;;;;;;28.48;18.92;;;4.20;99.90;;;;;;5017162;28;20490;-66
2020/12/07 01:58:33;;;;;;;29.60;18.90;;;4.10;99.90;;;;;;5013055;28;20433;-66
2020/12/07 02:01:01;;;;;;;27.58;18.05;;;4.10;99.90;;;;;;5014231;28;20420;-66
2020/12/07 02:03:27;;;;;;;26.83;17.83;;;4.20;99.90;;;;;;5013875;28;20412;-66
2020/12/07 02:05:54;;;;;;;30.13;18.60;;;4.20;99.90;;;;;;5013981;28;20421;-66
2020/12/07 02:08:20;;;;;;;30.02;18.40;;;4.30;99.90;;;;;;5013879;28;20459;-66
2020/12/07 02:10:47;;;;;;;29.80;19.67;;;4.20;99.90;;;;;;5014043;28;20463;-66
2020/12/07 02:13:14;;;;;;;28.65;19.45;;;4.20;99.90;;;;;;5014228;28;20417;-67
2020/12/07 02:15:40;;;;;;;25.15;18.92;;;4.30;1.00;;;;;;5014039;28;20482;-67
2020/12/07 02:18:07;;;;;;;30.40;20.67;;;4.30;1.00;;;;;;5013781;28;20522;-66
2020/12/07 02:20:35;;;;;;;28.48;19.73;;;4.30;99.90;;;;;;5013578;28;20414;-66
2020/12/07 02:23:01;;;;;;;30.05;20.30;;;4.30;99.90;;;;;;5013508;28;20458;-66
2020/12/07 02:25:28;;;;;;;29.20;20.10;;;4.40;99.90;;;;;;5013549;28;20420;-66
2020/12/07 02:27:54;;;;;;;29.58;21.02;;;4.30;99.90;;;;;;5013044;28;20478;-66
2020/12/07 02:30:21;;;;;;;35.70;21.92;;;4.30;99.90;;;;;;5015019;28;20412;-67
2020/12/07 02:32:48;;;;;;;34.63;23.05;;;4.30;99.90;;;;;;5018604;28;20536;-66
2020/12/07 02:35:15;;;;;;;34.58;22.17;;;4.20;99.90;;;;;;5018277;28;20416;-67
2020/12/07 02:37:44;;;;;;;35.63;22.90;;;4.20;1.00;;;;;;5015992;28;20429;-67
2020/12/07 02:40:11;;;;;;;35.78;23.55;;;4.20;99.90;;;;;;5013361;28;20413;-67
2020/12/07 02:42:38;;;;;;;33.80;21.80;;;4.30;1.00;;;;;;5023033;28;20413;-66
2020/12/07 02:45:07;;;;;;;36.20;23.90;;;4.40;1.00;;;;;;5025457;28;20417;-67
2020/12/07 02:47:33;;;;;;;38.03;24.67;;;4.40;99.90;;;;;;5021601;28;20471;-66
2020/12/07 02:49:59;;;;;;;40.17;24.83;;;4.30;99.90;;;;;;5013005;28;20832;-66
2020/12/07 02:52:27;;;;;;;38.97;25.85;;;4.10;99.90;;;;;;5013003;28;20413;-66
2020/12/07 02:54:55;;;;;;;38.28;25.73;;;4.20;1.00;;;;;;5012924;28;20416;-66
2020/12/07 02:57:21;;;;;;;37.72;24.48;;;4.20;1.00;;;;;;5012842;28;20428;-66
2020/12/07 02:59:48;;;;;;;36.83;25.88;;;4.30;1.00;;;;;;5012895;28;20417;-66
2020/12/07 03:02:14;;;;;;;38.25;24.52;;;4.30;1.00;;;;;;5013131;28;20413;-66
2020/12/07 03:04:40;;;;;;;35.70;24.00;;;4.30;99.90;;;;;;5012687;28;20408;-66
2020/12/07 03:07:07;;;;;;;35.78;24.60;;;4.30;1.00;;;;;;5012832;28;20464;-66
2020/12/07 03:09:33;;;;;;;32.38;23.65;;;4.40;1.00;;;;;;5011152;28;20416;-66
2020/12/07 03:12:00;;;;;;;36.00;23.90;;;4.30;99.90;;;;;;5012801;28;20840;-66
2020/12/07 03:14:26;;;;;;;34.67;23.70;;;4.30;99.90;;;;;;5012786;28;20471;-66
2020/12/07 03:16:53;;;;;;;37.30;24.30;;;4.40;1.00;;;;;;5012447;28;20820;-66
2020/12/07 03:19:19;;;;;;;35.33;22.95;;;4.40;99.90;;;;;;5012576;28;20409;-66
2020/12/07 03:21:45;;;;;;;34.78;22.60;;;4.30;99.90;;;;;;5012267;28;20503;-66
2020/12/07 03:24:11;;;;;;;31.65;22.60;;;4.30;99.90;;;;;;5012398;28;20443;-66
2020/12/07 03:26:37;;;;;;;34.90;22.80;;;4.40;99.90;;;;;;5012557;28;20474;-66
2020/12/07 03:29:05;;;;;;;34.85;22.63;;;4.40;99.90;;;;;;5011869;28;20463;-66
2020/12/07 03:31:31;;;;;;;32.20;22.60;;;4.30;99.90;;;;;;5012469;28;20459;-66
2020/12/07 03:33:58;;;;;;;40.47;24.52;;;4.10;99.90;;;;;;5012038;28;20975;-66
2020/12/07 03:36:24;;;;;;;40.15;25.45;;;4.00;99.90;;;;;;5012088;28;20424;-66
2020/12/07 03:38:50;;;;;;;37.80;25.07;;;3.90;99.90;;;;;;5012141;28;20429;-66
2020/12/07 03:41:17;;;;;;;40.17;25.10;;;4.00;1.00;;;;;;5012088;28;20834;-66
2020/12/07 03:43:44;;;;;;;37.45;25.45;;;3.90;1.00;;;;;;5012181;28;20417;-66
2020/12/07 03:46:11;;;;;;;39.10;25.85;;;3.90;1.00;;;;;;5012069;28;20408;-66
2020/12/07 03:48:37;;;;;;;39.00;25.85;;;4.00;13.80;;;;;;5011890;28;20777;-66
2020/12/07 03:51:04;;;;;;;36.37;25.03;;;4.00;11.70;;;;;;5011622;28;20971;-66
2020/12/07 03:53:32;;;;;;;37.95;25.42;;;4.00;9.60;;;;;;5012031;28;20754;-66
2020/12/07 03:55:58;;;;;;;36.67;25.13;;;4.10;15.10;;;;;;5012233;28;20467;-66
2020/12/07 03:58:24;;;;;;;41.42;26.20;;;4.00;1.00;;;;;;5011863;28;20833;-66
2020/12/07 04:00:50;;;;;;;36.87;26.60;;;3.90;1.00;;;;;;5011693;28;20834;-66
2020/12/07 04:03:18;;;;;;;41.70;27.02;;;4.00;1.00;;;;;;5011677;28;20959;-67
2020/12/07 04:05:46;;;;;;;38.47;26.00;;;4.10;1.00;;;;;;5011713;28;20901;-66
2020/12/07 04:08:13;;;;;;;35.65;24.88;;;4.10;1.00;;;;;;5011875;28;20467;-66
2020/12/07 04:10:40;;;;;;;39.47;25.77;;;4.20;1.00;;;;;;5011502;28;20416;-66
2020/12/07 04:13:06;;;;;;;37.55;25.10;;;4.10;1.00;;;;;;5011823;28;20416;-66
2020/12/07 04:15:33;;;;;;;38.00;25.20;;;4.20;1.00;;;;;;5011469;28;20410;-66
2020/12/07 04:17:59;;;;;;;35.85;25.40;;;4.20;1.00;;;;;;5011413;28;20437;-66
2020/12/07 04:20:26;;;;;;;39.20;25.50;;;4.20;1.00;;;;;;5010895;28;20412;-66
2020/12/07 04:22:52;;;;;;;39.20;26.23;;;4.10;1.00;;;;;;5012535;28;20416;-66
2020/12/07 04:25:18;;;;;;;37.00;25.27;;;4.00;1.00;;;;;;5016249;28;20468;-66
2020/12/07 04:27:45;;;;;;;35.20;24.10;;;4.10;6.50;;;;;;5019008;28;20413;-67
2020/12/07 04:30:11;;;;;;;35.08;23.85;;;4.20;8.70;;;;;;5012130;28;20409;-66
2020/12/07 04:32:37;;;;;;;38.43;25.70;;;4.20;1.00;;;;;;5011388;28;20897;-66
2020/12/07 04:35:03;;;;;;;35.70;23.98;;;4.10;1.00;;;;;;5011330;28;20417;-66
2020/12/07 04:37:30;;;;;;;40.50;25.38;;;4.10;1.00;;;;;;5011315;28;20459;-66
2020/12/07 04:39:57;;;;;;;36.00;24.40;;;4.10;1.00;;;;;;5011040;28;20412;-66
2020/12/07 04:42:24;;;;;;;32.93;23.23;;;4.20;1.00;;;;;;5011410;28;20534;-66
2020/12/07 04:44:50;;;;;;;37.78;24.50;;;4.00;99.90;;;;;;5011679;28;20892;-67
2020/12/07 04:47:18;;;;;;;36.72;24.83;;;4.00;1.00;;;;;;5011547;28;20444;-66
2020/12/07 04:49:44;;;;;;;36.07;24.40;;;3.90;1.00;;;;;;5012002;28;20421;-67
2020/12/07 04:52:11;;;;;;;38.00;25.13;;;4.00;1.00;;;;;;5011422;28;20466;-66
2020/12/07 04:54:40;;;;;;;34.15;24.05;;;3.90;1.00;;;;;;5011150;28;20413;-66
2020/12/07 04:57:07;;;;;;;33.88;22.95;;;3.90;21.10;;;;;;5010775;28;20885;-66
2020/12/07 04:59:34;;;;;;;34.25;23.60;;;3.90;1.00;;;;;;5010809;28;20467;-66
2020/12/07 05:02:00;;;;;;;32.30;22.73;;;3.90;1.00;;;;;;5007011;28;20470;-66
2020/12/07 05:04:27;;;;;;;29.80;21.05;;;4.00;16.70;;;;;;4992267;28;20410;-66
2020/12/07 05:07:01;;;;;;;29.85;21.83;;;4.00;1.00;;;;;;5011134;28;20412;-66
2020/12/07 05:09:29;;;;;;;33.10;22.73;;;4.00;1.00;;;;;;5010425;28;20571;-64
2020/12/07 05:11:57;;;;;;;35.50;22.40;;;4.00;1.00;;;;;;5011012;28;20821;-65
2020/12/07 05:14:23;;;;;;;35.22;23.83;;;4.00;1.00;;;;;;5010919;28;20793;-65
2020/12/07 05:16:50;;;;;;;36.22;24.73;;;3.80;99.90;;;;;;5011011;28;20416;-65
2020/12/07 05:19:20;;;;;;;38.97;26.77;;;3.80;1.00;;;;;;5010785;28;20463;-65
2020/12/07 05:21:46;;;;;;;38.17;26.45;;;3.80;1.00;;;;;;5010969;28;20413;-65
2020/12/07 05:24:12;;;;;;;41.97;26.38;;;3.80;1.00;;;;;;5011048;28;20784;-65
2020/12/07 05:26:40;;;;;;;42.43;28.57;;;3.80;1.00;;;;;;5011990;28;20440;-65
2020/12/07 05:29:11;;;;;;;42.00;27.33;;;3.70;31.80;;;;;;5010376;28;20426;-65
2020/12/07 05:31:38;;;;;;;44.38;28.88;;;3.80;99.90;;;;;;5010894;28;20416;-65
2020/12/07 05:34:05;;;;;;;43.10;29.75;;;3.90;99.90;;;;;;5014414;28;20417;-65
2020/12/07 05:36:31;;;;;;;50.80;30.70;;;3.80;99.90;;;;;;5014471;28;20420;-65
2020/12/07 05:38:57;;;;;;;47.03;31.80;;;3.80;99.90;;;;;;5013974;28;20429;-65
2020/12/07 05:41:24;;;;;;;48.27;30.77;;;3.80;99.90;;;;;;5014195;28;20467;-65
2020/12/07 05:43:52;;;;;;;49.10;31.13;;;3.90;99.90;;;;;;5014720;28;20467;-65
2020/12/07 05:46:20;;;;;;;54.78;32.90;;;3.90;97.00;;;;;;5014478;28;20459;-65
2020/12/07 05:48:47;;;;;;;49.95;34.08;;;3.90;21.60;;;;;;5014042;28;21047;-65
2020/12/07 05:51:15;;;;;;;49.40;33.17;;;3.90;99.90;;;;;;5013774;28;20420;-65
2020/12/07 05:53:41;;;;;;;47.15;32.17;;;3.90;1.00;;;;;;5014048;28;20417;-65
2020/12/07 05:56:09;;;;;;;49.40;32.88;;;3.90;1.00;;;;;;5013747;28;20897;-65
2020/12/07 05:58:41;;;;;;;48.88;31.88;;;3.90;1.00;;;;;;5013732;28;20464;-65
2020/12/07 06:01:10;;;;;;;48.55;32.50;;;4.00;1.00;;;;;;5013900;28;20412;-65
2020/12/07 06:03:41;;;;;;;48.33;33.30;;;3.80;1.00;;;;;;5013684;28;20467;-65
2020/12/07 06:06:07;;;;;;;48.38;32.45;;;3.90;1.00;;;;;;5013923;28;20475;-65
2020/12/07 06:08:35;;;;;;;48.28;31.85;;;3.90;1.00;;;;;;5013655;28;20406;-65
2020/12/07 06:11:05;;;;;;;44.22;30.33;;;3.90;1.00;;;;;;5013935;28;20840;-65
2020/12/07 06:13:34;;;;;;;47.10;31.98;;;3.80;1.00;;;;;;5014099;28;20413;-64
2020/12/07 06:16:03;;;;;;;46.15;31.88;;;3.70;1.00;;;;;;5013634;28;20413;-66
2020/12/07 06:18:31;;;;;;;46.80;31.42;;;3.80;99.90;;;;;;5013679;28;20844;-65
2020/12/07 06:21:04;;;;;;;46.50;31.30;;;3.80;99.90;;;;;;5013589;28;20413;-65
2020/12/07 06:23:32;;;;;;;46.33;31.70;;;3.90;99.90;;;;;;5011955;28;20750;-65
2020/12/07 06:26:00;;;;;;;48.15;30.20;;;3.90;99.90;;;;;;5012892;28;20475;-65
2020/12/07 06:28:31;;;;;;;43.10;30.30;;;3.90;1.00;;;;;;5012807;28;20413;-65
2020/12/07 06:31:02;;;;;;;43.47;31.33;;;3.90;99.90;;;;;;5013010;28;20611;-65
2020/12/07 06:33:29;;;;;;;45.80;31.43;;;3.90;1.00;;;;;;5012511;28;20405;-67
2020/12/07 06:35:57;;;;;;;42.45;31.27;;;3.90;1.00;;;;;;5013172;28;20416;-67
2020/12/07 06:38:23;;;;;;;45.05;30.10;;;3.90;1.00;;;;;;5012921;28;20428;-66
2020/12/07 06:40:53;;;;;;;47.80;32.47;;;3.90;1.00;;;;;;5013245;28;20475;-67
2020/12/07 06:43:25;;;;;;;46.42;30.20;;;3.90;1.00;;;;;;5018084;28;20892;-66
2020/12/07 06:45:51;;;;;;;46.50;32.28;;;3.90;1.00;;;;;;5014664;28;20410;-67
2020/12/07 06:48:20;;;;;;;47.05;29.88;;;3.90;1.00;;;;;;5012834;28;20474;-66
2020/12/07 06:50:48;;;;;;;47.93;31.63;;;3.80;1.00;;;;;;5018494;28;20424;-67
2020/12/07 06:53:37;;;;;;;53.60;33.63;;;3.80;16.70;;;;;;5019000;28;20435;-64
2020/12/07 06:56:04;;;;;;;46.05;30.85;;;3.80;99.90;;;;;;5015035;28;20435;-65
2020/12/07 06:58:32;;;;;;;50.63;32.78;;;3.80;99.90;;;;;;5012247;28;20435;-65
2020/12/07 07:01:11;;;;;;;54.78;34.17;;;3.80;98.50;;;;;;5012573;28;20479;-65
2020/12/07 07:03:46;;;;;;;53.88;34.42;;;3.80;1.00;;;;;;5012150;28;20444;-66
2020/12/07 07:06:13;;;;;;;49.55;33.20;;;3.80;88.70;;;;;;5012368;28;20868;-67
2020/12/07 07:08:40;;;;;;;50.03;33.25;;;3.70;1.00;;;;;;5012199;28;20409;-67
2020/12/07 07:11:08;;;;;;;50.35;33.42;;;3.80;99.90;;;;;;5011814;28;20417;-65
2020/12/07 07:13:34;;;;;;;51.22;33.83;;;3.80;99.90;;;;;;5012120;28;20420;-67
2020/12/07 07:16:01;;;;;;;49.60;32.70;;;3.80;99.90;;;;;;5012348;28;20412;-67
2020/12/07 07:18:27;;;;;;;50.15;33.28;;;3.70;1.00;;;;;;5012176;28;20523;-66
2020/12/07 07:21:00;;;;;;;46.30;32.43;;;3.70;29.90;;;;;;5012040;28;20516;-67
2020/12/07 07:23:26;;;;;;;52.17;32.88;;;3.80;39.80;;;;;;5012336;28;20420;-65
2020/12/07 07:25:56;;;;;;;47.42;32.47;;;3.70;1.00;;;;;;5012259;28;20440;-67
2020/12/07 07:28:22;;;;;;;48.33;32.80;;;3.70;1.00;;;;;;5011487;28;20416;-66
2020/12/07 07:30:48;;;;;;;50.40;32.58;;;3.70;1.00;;;;;;5011722;28;20427;-65
2020/12/07 07:33:14;;;;;;;47.28;31.40;;;3.70;4.00;;;;;;5011634;28;20413;-65
2020/12/07 07:35:41;;;;;;;48.22;32.50;;;3.70;1.00;;;;;;5011716;28;20416;-65
2020/12/07 07:38:07;;;;;;;50.67;34.00;;;3.60;1.00;;;;;;5011472;28;20896;-65
2020/12/07 07:40:33;;;;;;;46.83;31.70;;;3.70;40.20;;;;;;5012243;28;20478;-66
2020/12/07 07:43:01;;;;;;;44.80;30.25;;;3.70;60.90;;;;;;5012534;28;20416;-66
2020/12/07 07:45:32;;;;;;;48.83;32.28;;;3.70;16.30;;;;;;5011735;28;20478;-65
2020/12/07 07:48:04;;;;;;;45.45;30.33;;;3.70;1.00;;;;;;5011679;28;20409;-65
2020/12/07 07:50:49;;;;;;;47.05;31.27;;;3.70;24.10;;;;;;5011382;28;20412;-66
2020/12/07 08:02:29;;;;;;;45.33;30.77;;;3.70;1.00;;;;;;5011595;28;20423;-64
2020/12/07 08:16:15;;;;;;;42.97;28.17;;;3.80;1.00;;;;;;5011236;28;20457;-65
2020/12/07 08:18:43;;;;;;;41.80;27.97;;;3.70;1.00;;;;;;5011004;28;20566;-65
2020/12/07 08:21:10;;;;;;;37.50;27.50;;;3.70;1.00;;;;;;5010936;28;20487;-66
2020/12/07 08:23:36;;;;;;;40.47;26.48;;;3.70;1.00;;;;;;5010759;28;20460;-65
2020/12/07 08:26:03;;;;;;;35.08;25.10;;;3.70;99.90;;;;;;5010896;28;20424;-67
2020/12/07 08:28:32;;;;;;;39.13;26.90;;;3.60;1.00;;;;;;5010802;28;20412;-67
2020/12/07 08:31:03;;;;;;;38.00;24.67;;;3.60;1.00;;;;;;5010970;28;20503;-67
2020/12/07 08:33:30;;;;;;;34.77;24.80;;;3.50;1.00;;;;;;5010838;28;20417;-67
2020/12/07 08:35:58;;;;;;;35.25;24.15;;;3.60;1.00;;;;;;5011003;28;20792;-68
2020/12/07 08:38:26;;;;;;;32.75;22.70;;;3.60;1.00;;;;;;5010880;28;20432;-67
2020/12/07 08:40:52;;;;;;;36.47;23.08;;;3.60;1.00;;;;;;5010732;28;20479;-67
2020/12/07 08:43:18;;;;;;;32.33;22.60;;;3.70;1.00;;;;;;5010915;28;20462;-67
2020/12/07 08:45:45;;;;;;;33.72;22.50;;;3.60;99.90;;;;;;5010672;28;20474;-67
2020/12/07 08:48:11;;;;;;;31.70;21.70;;;3.60;1.00;;;;;;5010837;28;20408;-65
2020/12/07 08:50:37;;;;;;;34.27;22.70;;;3.60;1.00;;;;;;5010652;28;20531;-66
2020/12/07 08:53:04;;;;;;;31.65;21.60;;;3.60;1.00;;;;;;5010522;28;20408;-66
2020/12/07 08:55:30;;;;;;;28.50;19.63;;;3.70;1.00;;;;;;5010842;28;20416;-66
2020/12/07 08:57:56;;;;;;;27.75;19.55;;;3.70;1.00;;;;;;5010686;28;20432;-66
2020/12/07 09:00:23;;;;;;;30.73;19.00;;;3.70;99.90;;;;;;5010817;28;20408;-66
2020/12/07 09:02:49;;;;;;;31.50;20.10;;;3.70;1.00;;;;;;5010833;28;20413;-66
2020/12/07 09:05:15;;;;;;;29.73;19.30;;;3.80;1.00;;;;;;5010538;28;20416;-68
2020/12/07 09:07:41;;;;;;;29.85;19.83;;;3.80;99.90;;;;;;5013830;28;20784;-68
2020/12/07 09:10:09;;;;;;;29.85;19.73;;;4.30;99.90;;;;;;5014917;28;20413;-68
2020/12/07 09:12:36;;;;;;;31.90;20.55;;;3.80;99.90;;;;;;5014823;28;20420;-68
2020/12/07 09:15:02;;;;;;;29.83;19.15;;;3.90;99.90;;;;;;5014844;28;20475;-68
2020/12/07 09:17:28;;;;;;;30.25;20.80;;;3.80;99.90;;;;;;5015142;28;20893;-67
2020/12/07 09:19:54;;;;;;;30.33;20.00;;;3.80;99.90;;;;;;5014545;28;20429;-68
2020/12/07 09:22:21;;;;;;;29.43;19.90;;;3.90;99.90;;;;;;5014292;28;20812;-68
2020/12/07 09:24:47;;;;;;;25.88;17.95;;;3.90;99.90;;;;;;5014172;28;20482;-67
2020/12/07 09:27:14;;;;;;;26.10;17.75;;;3.90;99.90;;;;;;5014466;28;20778;-67
2020/12/07 09:29:40;;;;;;;24.27;17.75;;;3.90;99.90;;;;;;5013898;28;20471;-67
2020/12/07 09:32:07;;;;;;;26.65;17.88;;;3.90;99.90;;;;;;5014320;28;20416;-67
2020/12/07 09:34:33;;;;;;;25.65;18.80;;;3.80;99.90;;;;;;5013968;28;20467;-68
2020/12/07 09:36:59;;;;;;;27.40;17.55;;;3.90;99.90;;;;;;5013872;28;20475;-67
2020/12/07 09:39:25;;;;;;;24.08;17.17;;;3.80;99.90;;;;;;5013878;28;20983;-67
2020/12/07 09:41:51;;;;;;;25.08;17.23;;;3.90;99.90;;;;;;5014060;28;20412;-67
2020/12/07 09:44:18;;;;;;;23.70;17.33;;;3.90;99.90;;;;;;5013804;28;20967;-66
2020/12/07 09:46:44;;;;;;;22.93;15.80;;;3.90;99.90;;;;;;5014219;28;20474;-66
2020/12/07 09:49:10;;;;;;;24.75;17.15;;;3.90;99.90;;;;;;5013983;28;20451;-67
2020/12/07 09:51:36;;;;;;;23.42;16.80;;;3.90;99.90;;;;;;5014280;28;20415;-67
2020/12/07 09:54:03;;;;;;;25.45;17.00;;;3.90;99.90;;;;;;5014847;28;20412;-66
2020/12/07 09:56:29;;;;;;;27.73;19.20;;;3.90;99.90;;;;;;5014218;28;20417;-65
2020/12/07 09:58:56;;;;;;;25.30;17.42;;;3.90;99.90;;;;;;5014036;28;20909;-66
2020/12/07 10:01:23;;;;;;;25.75;17.90;;;3.80;99.90;;;;;;5013880;28;20417;-65
2020/12/07 10:03:49;;;;;;;27.83;18.90;;;3.80;99.90;;;;;;5013754;28;20950;-66
2020/12/07 10:06:15;;;;;;;24.15;17.02;;;3.80;99.90;;;;;;5013815;28;20479;-67
2020/12/07 10:08:41;;;;;;;22.40;17.52;;;3.80;99.90;;;;;;5013577;28;20417;-65
2020/12/07 10:11:07;;;;;;;25.55;18.00;;;3.70;99.90;;;;;;5013515;28;20884;-65
2020/12/07 10:13:33;;;;;;;27.40;19.90;;;3.70;99.90;;;;;;5013272;28;20439;-66
2020/12/07 10:15:59;;;;;;;27.25;19.25;;;3.70;99.90;;;;;;5013436;28;20848;-65
2020/12/07 10:18:26;;;;;;;27.17;20.00;;;3.60;99.90;;;;;;5012542;28;20459;-65
2020/12/07 10:20:52;;;;;;;30.52;21.08;;;3.60;99.90;;;;;;5012923;28;20820;-66
2020/12/07 10:23:18;;;;;;;29.27;21.40;;;3.70;99.90;;;;;;5013240;28;20483;-65
2020/12/07 10:25:48;;;;;;;30.58;21.52;;;3.70;99.90;;;;;;5013052;28;20409;-66
2020/12/07 10:28:14;;;;;;;25.92;19.13;;;3.70;99.90;;;;;;5012919;28;20417;-67
2020/12/07 10:30:40;;;;;;;31.17;22.70;;;3.60;99.90;;;;;;5013026;28;20413;-66
2020/12/07 10:33:07;;;;;;;29.90;21.10;;;3.60;99.90;;;;;;5012881;28;20420;-65
2020/12/07 10:35:34;;;;;;;27.63;20.88;;;3.60;99.90;;;;;;5013088;28;20417;-65
2020/12/07 10:38:00;;;;;;;29.63;22.08;;;3.60;99.90;;;;;;5012920;28;20413;-66
2020/12/07 10:40:26;;;;;;;30.45;21.75;;;3.60;99.90;;;;;;5013040;28;20413;-65
2020/12/07 10:42:52;;;;;;;32.30;22.38;;;3.70;99.90;;;;;;5013140;28;20444;-65
2020/12/07 10:45:18;;;;;;;28.45;20.65;;;3.70;99.90;;;;;;5012931;28;20828;-66
2020/12/07 10:47:44;;;;;;;32.80;21.42;;;3.80;99.90;;;;;;5013006;28;20456;-66
2020/12/07 10:50:10;;;;;;;27.95;20.10;;;3.80;99.90;;;;;;5012792;28;20824;-65
2020/12/07 10:52:37;;;;;;;30.40;22.10;;;3.80;99.90;;;;;;5013175;28;20416;-68
2020/12/07 10:55:04;;;;;;;30.35;21.60;;;3.70;99.90;;;;;;5020004;28;20409;-69
2020/12/07 10:57:30;;;;;;;31.23;22.10;;;3.70;99.90;;;;;;5020947;28;20416;-67
2020/12/07 10:59:56;;;;;;;34.78;22.73;;;3.80;99.90;;;;;;5020947;28;20436;-67
2020/12/07 11:02:22;;;;;;;33.85;20.85;;;3.80;99.90;;;;;;5013451;28;20436;-66
2020/12/07 11:04:48;;;;;;;30.30;20.70;;;3.80;99.90;;;;;;5013353;28;20474;-66
2020/12/07 11:07:17;;;;;;;30.77;21.77;;;3.90;99.90;;;;;;5013998;28;20513;-67
2020/12/07 11:09:44;;;;;;;31.40;21.48;;;3.90;99.90;;;;;;5018632;28;20431;-67
2020/12/07 11:12:13;;;;;;;29.85;20.65;;;4.00;99.90;;;;;;5022630;28;20444;-68
2020/12/07 11:14:40;;;;;;;30.02;19.73;;;3.90;99.90;;;;;;5015323;28;20428;-65
2020/12/07 11:17:08;;;;;;;29.90;21.02;;;4.00;99.90;;;;;;5014793;28;20416;-65
2020/12/07 11:19:34;;;;;;;27.10;20.17;;;3.90;99.90;;;;;;5012200;28;20522;-65
2020/12/07 11:22:00;;;;;;;27.58;18.55;;;4.00;99.90;;;;;;5012119;28;20424;-66
2020/12/07 11:24:26;;;;;;;25.45;19.38;;;4.00;90.10;;;;;;5012052;28;20412;-65
2020/12/07 11:26:53;;;;;;;26.33;18.67;;;3.90;99.90;;;;;;5012105;28;20409;-67
2020/12/07 11:29:19;;;;;;;24.88;17.75;;;3.90;99.90;;;;;;5011744;28;20405;-68
2020/12/07 11:31:47;;;;;;;26.33;17.42;;;3.90;99.90;;;;;;5011736;28;20412;-68
2020/12/07 11:34:19;;;;;;;29.08;19.25;;;3.80;54.10;;;;;;5011549;28;20427;-72
2020/12/07 11:36:45;;;;;;;26.93;18.27;;;3.50;99.90;;;;;;5011963;28;20767;-68
2020/12/07 11:39:23;;;;;;;21.77;16.35;;;4.00;99.90;;;;;;5011578;28;20483;-67
2020/12/07 11:42:00;;;;;;;23.42;16.40;;;4.10;98.90;;;;;;5011662;28;20428;-68
2020/12/07 11:44:28;;;;;;;27.83;16.17;;;4.10;24.60;;;;;;5011908;28;20448;-67
2020/12/07 11:46:56;;;;;;;24.02;17.33;;;4.10;16.50;;;;;;5011752;28;20417;-67
2020/12/07 11:49:22;;;;;;;29.63;18.17;;;4.10;99.90;;;;;;5011604;28;20461;-67
2020/12/07 11:51:49;;;;;;;23.63;15.27;;;4.30;99.90;;;;;;5011446;28;20467;-67
2020/12/07 11:54:15;;;;;;;21.80;15.05;;;4.30;69.60;;;;;;5011534;28;20413;-67
2020/12/07 11:56:41;;;;;;;21.17;13.63;;;4.30;1.00;;;;;;5011524;28;20515;-69
2020/12/07 11:59:09;;;;;;;22.65;14.63;;;4.30;1.00;;;;;;5011080;28;20428;-68
2020/12/07 12:01:37;;;;;;;20.65;13.50;;;4.30;1.00;;;;;;5011538;28;20416;-67
2020/12/07 12:04:04;;;;;;;18.50;13.43;;;4.50;1.00;;;;;;5011189;28;20409;-69
2020/12/07 12:06:32;;;;;;;18.23;12.15;;;4.60;1.00;;;;;;5011416;28;20424;-65
2020/12/07 12:08:59;;;;;;;18.05;11.68;;;4.60;1.00;;;;;;5011186;28;20420;-65
2020/12/07 12:11:30;;;;;;;15.60;11.57;;;4.50;1.00;;;;;;5011865;28;20420;-65
2020/12/07 12:13:58;;;;;;;17.13;10.93;;;4.40;1.00;;;;;;5011459;28;20420;-64
2020/12/07 12:16:26;;;;;;;18.42;11.20;;;4.40;1.00;;;;;;5011878;28;20503;-69
2020/12/07 12:18:53;;;;;;;14.52;10.32;;;4.50;1.00;;;;;;5011132;28;20428;-68
2020/12/07 12:21:19;;;;;;;16.35;10.77;;;4.40;1.00;;;;;;5011095;28;20412;-68
2020/12/07 12:23:45;;;;;;;14.15;10.13;;;4.40;1.00;;;;;;5010773;28;20844;-68
2020/12/07 12:26:13;;;;;;;13.05;9.00;;;4.50;1.00;;;;;;5011349;28;20459;-68
2020/12/07 12:28:39;;;;;;;11.35;8.90;;;4.50;1.00;;;;;;5010927;28;20444;-67
2020/12/07 12:31:05;;;;;;;11.65;8.27;;;4.50;1.00;;;;;;5011350;28;20447;-67
2020/12/07 12:33:32;;;;;;;13.60;9.18;;;4.50;1.00;;;;;;5011231;28;20830;-67
2020/12/07 12:35:59;;;;;;;15.25;8.95;;;4.40;1.00;;;;;;5010861;28;20493;-68
2020/12/07 12:38:25;;;;;;;13.68;8.68;;;4.40;1.00;;;;;;5010817;28;20480;-66
2020/12/07 12:40:51;;;;;;;13.82;9.18;;;4.40;1.00;;;;;;5010694;28;20417;-64
2020/12/07 12:43:17;;;;;;;11.70;8.60;;;4.50;1.00;;;;;;5011045;28;20408;-64
2020/12/07 12:45:43;;;;;;;13.18;8.68;;;4.40;1.00;;;;;;5011048;28;20424;-65
2020/12/07 12:48:09;;;;;;;12.15;8.43;;;4.50;1.00;;;;;;5010685;28;20943;-65
2020/12/07 12:50:36;;;;;;;12.75;9.43;;;4.50;1.00;;;;;;5010795;28;20832;-64
2020/12/07 12:53:03;;;;;;;17.02;10.35;;;4.50;1.00;;;;;;5011145;28;20482;-64
2020/12/07 12:55:29;;;;;;;13.65;9.57;;;4.50;1.00;;;;;;5011026;28;20416;-65
2020/12/07 12:57:55;;;;;;;14.25;9.88;;;4.50;1.00;;;;;;5011343;28;20828;-65
2020/12/07 13:00:22;;;;;;;12.15;8.80;;;4.50;1.00;;;;;;5011270;28;20436;-64
2020/12/07 13:02:48;;;;;;;12.43;9.80;;;4.50;1.00;;;;;;5011015;28;20449;-65